Terminal Aerodrome Forecast
Issued by NWS

Home | Current Version | Previous Version | Graphics & Text | Print | Product List | Glossary On
Versions: 1 2 3 4 5 6 7 8 9 10 11 12 13 14 15 16 17
000
FTUS43 KBIS 220500 AAA
TAFJMS
TAF AMD
KJMS 220544Z 2206/2306 VRB02KT P6SM SKC
     FM220800 21004KT P6SM SCT250
     FM221200 17007KT P6SM FEW180 SCT220
     FM221600 14010KT P6SM SCT180 BKN250
     FM222200 14016G22KT P6SM SCT100 BKN200
     FM230200 12018G25KT P6SM SCT070 BKN110=

USA.gov is the U.S. government's official web portal to all federal, state and local government web resources and services.